aviador You're here:

KSPW Decoded Metar

SPENCER in IA, USA
Report Time2018-02-20 12:53:00
UTC Time2018-02-20 13:55:16
Flight Rules vfr VFR
Wind310° at 09 kt
W.Decomp.*RWY 30: 9.0 kt HW 0.8 kt RCW
RWY 36: 5.2 kt HW 7.4 kt LCW
W.Rank310° ranks 11
Current wind is below 310° avg. (10.5)
Visibility9999 m
Phenomena:N/A
Clouds:Overcast 034 Hf
Expected CloudBase > 1,200 ft AGL from Temp-Dew spread
Ceiling3,400 ft
Temp-9°C (ISA -21)
Dew Point-12°C (79% RH)
AAT-15.4°C
QNH1013 hPa
Density Alt-1,296 ft
Elevation1,322 ft
Report Wrong Elevation
Raw Report
METAR KSPW 201253Z AUTO 31009KT 10SM OVC034 M09/M12 A2991 RMK AO2 UPB41E49
SLP151 T10941122 PNO=

Extra information for KSPW:More info

Metar Taf Metar & Taf Last 4 Metars F.Rules Stats Wind Profile Meteogram Temp Stats Airport Information Weather charts Add Link Nearby VenuesMetar ALERT Operation Metar Decoded Social comments

AIRNAV info for KSPW